Time;durP1;ratioP1;P1;durP2;ratioP2;P2;SDS_P1;SDS_P2;PMS_P1;PMS_P2;Temp;Humidity;BMP_temperature;BMP_pressure;BME280_temperature;BME280_humidity;BME280_pressure;Samples;Min_cycle;Max_cycle;Signal;HPM_P1;HPM_P2
2023/05/27 00:01:22;;;;;;;;;;;;;;;;;;5050742;28;19913;-80
2023/05/27 00:03:47;;;;;;;;;;;;;;;;;;5048088;28;19919;-80
2023/05/27 00:06:13;;;;;;;;;;;;;;;;;;5055232;28;19966;-79
2023/05/27 00:08:38;;;;;;;;;;;;;;;;;;5055246;28;19913;-78
2023/05/27 00:11:03;;;;;;;;;;;;;;;;;;5054912;28;20272;-80
2023/05/27 00:13:29;;;;;;;;;;;;;;;;;;5037690;28;19913;-79
2023/05/27 00:15:55;;;;;;;;;;;;;;;;;;5055383;28;19924;-79
2023/05/27 00:18:21;;;;;;;;;;;;;;;;;;5054152;28;20015;-80
2023/05/27 00:20:46;;;;;;;;;;;;;;;;;;5055110;28;19944;-78
2023/05/27 00:23:12;;;;;;;;;;;;;;;;;;5054346;28;19920;-80
2023/05/27 00:25:38;;;;;;;;;;;;;;;;;;5054964;28;19916;-79
2023/05/27 00:28:06;;;;;;;;;;;;;;;;;;5035661;28;19913;-80
2023/05/27 00:30:32;;;;;;;;;;;;;;;;;;5054675;28;19924;-79
2023/05/27 00:32:57;;;;;;;;;;;;;;;;;;5055419;28;19917;-79
2023/05/27 00:35:23;;;;;;;;;;;;;;;;;;5054565;28;19939;-79
2023/05/27 00:37:48;;;;;;;;;;;;;;;;;;5055428;28;19920;-79
2023/05/27 00:40:13;;;;;;;;;;;;;;;;;;5055603;28;20280;-78
2023/05/27 00:42:39;;;;;;;;;;;;;;;;;;5055573;28;19913;-78
2023/05/27 00:45:04;;;;;;;;;;;;;;;;;;5051127;28;19917;-79
2023/05/27 00:47:32;;;;;;;;;;;;;;;;;;5051751;28;19970;-79
2023/05/27 00:49:58;;;;;;;;;;;;;;;;;;5053573;28;19913;-80
2023/05/27 00:52:28;;;;;;;;;;;;;;;;;;5047483;28;20406;-79
2023/05/27 00:54:57;;;;;;;;;;;;;;;;;;5055406;28;19970;-79
2023/05/27 00:57:26;;;;;;;;;;;;;;;;;;5039450;28;20054;-79
2023/05/27 00:59:55;;;;;;;;;;;;;;;;;;5054461;28;19970;-80
2023/05/27 01:02:22;;;;;;;;;;;;;;;;;;5053949;28;20003;-79
2023/05/27 01:04:48;;;;;;;;;;;;;;;;;;5055563;28;19917;-79
2023/05/27 01:07:13;;;;;;;;;;;;;;;;;;5055010;28;19912;-79
2023/05/27 01:09:40;;;;;;;;;;;;;;;;;;5055363;28;19913;-79
2023/05/27 01:12:06;;;;;;;;;;;;;;;;;;5058280;28;19913;-79
2023/05/27 01:14:35;;;;;;;;;;;;;;;;;;5035655;28;19924;-79
2023/05/27 01:17:00;;;;;;;;;;;;;;;;;;5059922;28;19916;-79
2023/05/27 01:19:26;;;;;;;;;;;;;;;;;;5057925;28;19912;-79
2023/05/27 01:21:51;;;;;;;;;;;;;;;;;;5060188;28;19917;-79
2023/05/27 01:24:16;;;;;;;;;;;;;;;;;;5044086;28;19990;-79
2023/05/27 01:26:46;;;;;;;;;;;;;;;;;;5061189;28;19909;-79
2023/05/27 01:29:11;;;;;;;;;;;;;;;;;;5060515;28;20376;-78
2023/05/27 01:31:41;;;;;;;;;;;;;;;;;;5061490;28;20370;-79
2023/05/27 01:34:09;;;;;;;;;;;;;;;;;;5055751;28;19960;-79
2023/05/27 01:36:35;;;;;;;;;;;;;;;;;;5059518;28;19917;-79
2023/05/27 01:39:00;;;;;;;;;;;;;;;;;;5060343;28;20389;-78
2023/05/27 01:41:31;;;;;;;;;;;;;;;;;;5062810;28;19917;-79
2023/05/27 01:43:57;;;;;;;;;;;;;;;;;;5063953;28;19934;-78
2023/05/27 01:46:25;;;;;;;;;;;;;;;;;;5061671;28;19920;-80
2023/05/27 01:48:51;;;;;;;;;;;;;;;;;;5060310;28;19928;-80
2023/05/27 01:51:16;;;;;;;;;;;;;;;;;;5047896;28;20007;-78
2023/05/27 01:53:45;;;;;;;;;;;;;;;;;;5046561;28;19947;-80
2023/05/27 01:56:11;;;;;;;;;;;;;;;;;;5061737;28;19945;-79
2023/05/27 01:58:36;;;;;;;;;;;;;;;;;;5072255;28;19901;-81
2023/05/27 02:01:02;;;;;;;;;;;;;;;;;;5054022;28;19913;-78
2023/05/27 02:03:27;;;;;;;;;;;;;;;;;;5048511;28;19970;-79
2023/05/27 02:05:55;;;;;;;;;;;;;;;;;;5055605;28;19909;-79
2023/05/27 02:08:31;;;;;;;;;;;;;;;;;;5058931;28;19913;-79
2023/05/27 02:10:56;;;;;;;;;;;;;;;;;;5059309;28;19956;-79
2023/05/27 02:13:22;;;;;;;;;;;;;;;;;;5058145;28;19917;-77
2023/05/27 02:15:50;;;;;;;;;;;;;;;;;;5058619;28;19917;-79
2023/05/27 02:18:20;;;;;;;;;;;;;;;;;;5059944;28;19916;-78
2023/05/27 02:20:46;;;;;;;;;;;;;;;;;;5059765;28;19920;-79
2023/05/27 02:23:11;;;;;;;;;;;;;;;;;;5055761;28;19913;-78
2023/05/27 02:25:36;;;;;;;;;;;;;;;;;;5054046;28;19913;-80
2023/05/27 02:28:05;;;;;;;;;;;;;;;;;;5052880;28;19916;-79
2023/05/27 02:30:33;;;;;;;;;;;;;;;;;;5053432;28;19913;-80
2023/05/27 02:32:59;;;;;;;;;;;;;;;;;;5051931;28;19935;-80
2023/05/27 02:35:24;;;;;;;;;;;;;;;;;;5051683;28;20354;-80
2023/05/27 02:37:51;;;;;;;;;;;;;;;;;;5035099;28;19948;-78
2023/05/27 02:40:16;;;;;;;;;;;;;;;;;;5047499;28;20384;-80
2023/05/27 02:42:42;;;;;;;;;;;;;;;;;;5052640;28;19912;-79
2023/05/27 02:45:07;;;;;;;;;;;;;;;;;;5052638;28;19970;-80
2023/05/27 02:47:33;;;;;;;;;;;;;;;;;;5051495;28;20003;-79
2023/05/27 02:49:59;;;;;;;;;;;;;;;;;;5051223;28;20013;-79
2023/05/27 02:52:24;;;;;;;;;;;;;;;;;;5034865;28;19963;-80
2023/05/27 02:54:50;;;;;;;;;;;;;;;;;;5052517;28;19917;-79
2023/05/27 02:57:15;;;;;;;;;;;;;;;;;;5046210;28;20000;-79
2023/05/27 02:59:40;;;;;;;;;;;;;;;;;;5045716;28;19999;-79
2023/05/27 03:02:06;;;;;;;;;;;;;;;;;;5050014;28;20004;-80
2023/05/27 03:04:31;;;;;;;;;;;;;;;;;;5031291;28;19917;-80
2023/05/27 03:06:57;;;;;;;;;;;;;;;;;;5041545;28;20397;-79
2023/05/27 03:09:22;;;;;;;;;;;;;;;;;;5052185;28;19917;-79
2023/05/27 03:11:47;;;;;;;;;;;;;;;;;;5060396;28;20122;-79
2023/05/27 03:14:13;;;;;;;;;;;;;;;;;;5051368;28;19912;-79
2023/05/27 03:16:39;;;;;;;;;;;;;;;;;;5034676;28;19948;-79
2023/05/27 03:19:05;;;;;;;;;;;;;;;;;;5052529;28;20380;-79
2023/05/27 03:21:31;;;;;;;;;;;;;;;;;;5052449;28;19935;-79
2023/05/27 03:23:57;;;;;;;;;;;;;;;;;;5051653;28;20017;-79
2023/05/27 03:26:22;;;;;;;;;;;;;;;;;;5053071;28;19920;-79
2023/05/27 03:28:47;;;;;;;;;;;;;;;;;;5049368;28;19974;-79
2023/05/27 03:31:13;;;;;;;;;;;;;;;;;;5032377;28;19912;-78
2023/05/27 03:33:47;;;;;;;;;;;;;;;;;;5034898;28;19929;-79
2023/05/27 03:36:13;;;;;;;;;;;;;;;;;;5055489;28;20052;-79
2023/05/27 03:38:38;;;;;;;;;;;;;;;;;;5057805;28;19913;-79
2023/05/27 03:41:03;;;;;;;;;;;;;;;;;;5052232;28;19917;-79
2023/05/27 03:43:29;;;;;;;;;;;;;;;;;;5052705;28;20300;-80
2023/05/27 03:45:54;;;;;;;;;;;;;;;;;;5042840;28;20011;-80
2023/05/27 03:48:20;;;;;;;;;;;;;;;;;;5030570;28;19970;-78
2023/05/27 03:50:45;;;;;;;;;;;;;;;;;;5047509;28;20364;-79
2023/05/27 03:53:11;;;;;;;;;;;;;;;;;;5037774;28;19913;-80
2023/05/27 03:55:36;;;;;;;;;;;;;;;;;;5051763;28;19966;-80
2023/05/27 03:58:01;;;;;;;;;;;;;;;;;;5058154;28;20264;-79
2023/05/27 04:00:28;;;;;;;;;;;;;;;;;;5033817;28;19916;-79
2023/05/27 04:02:53;;;;;;;;;;;;;;;;;;5049285;28;19951;-80
2023/05/27 04:05:19;;;;;;;;;;;;;;;;;;5037511;28;19948;-78
2023/05/27 04:07:44;;;;;;;;;;;;;;;;;;5050686;28;20364;-80
2023/05/27 04:10:10;;;;;;;;;;;;;;;;;;5051448;28;20422;-79
2023/05/27 04:12:36;;;;;;;;;;;;;;;;;;5052626;28;19966;-77
2023/05/27 04:15:01;;;;;;;;;;;;;;;;;;5054635;28;19921;-79
2023/05/27 04:17:29;;;;;;;;;;;;;;;;;;5055615;28;19913;-80
2023/05/27 04:19:56;;;;;;;;;;;;;;;;;;5055364;28;19965;-79
2023/05/27 04:22:22;;;;;;;;;;;;;;;;;;5037630;28;20321;-79
2023/05/27 04:24:48;;;;;;;;;;;;;;;;;;5021471;28;19959;-79
2023/05/27 04:27:16;;;;;;;;;;;;;;;;;;5034093;28;20291;-78
2023/05/27 04:29:43;;;;;;;;;;;;;;;;;;5037406;28;19960;-78
2023/05/27 04:32:09;;;;;;;;;;;;;;;;;;5053926;28;20019;-78
2023/05/27 04:34:35;;;;;;;;;;;;;;;;;;5056409;28;19917;-77
2023/05/27 04:37:00;;;;;;;;;;;;;;;;;;5054424;28;19912;-76
2023/05/27 04:39:26;;;;;;;;;;;;;;;;;;5036982;28;19919;-77
2023/05/27 04:41:51;;;;;;;;;;;;;;;;;;5052682;28;19917;-78
2023/05/27 04:44:26;;;;;;;;;;;;;;;;;;5046093;28;19920;-77
2023/05/27 04:46:54;;;;;;;;;;;;;;;;;;5067235;28;20008;-77
2023/05/27 04:49:20;;;;;;;;;;;;;;;;;;5037098;28;19912;-77
2023/05/27 04:51:45;;;;;;;;;;;;;;;;;;5059613;28;19955;-78
2023/05/27 04:54:12;;;;;;;;;;;;;;;;;;5038323;28;19912;-78
2023/05/27 04:56:38;;;;;;;;;;;;;;;;;;5070604;28;19920;-78
2023/05/27 04:59:05;;;;;;;;;;;;;;;;;;5072687;28;19913;-78
2023/05/27 05:01:48;;;;;;;;;;;;;;;;;;5067481;28;19911;-79
2023/05/27 05:04:19;;;;;;;;;;;;;;;;;;5055826;28;19912;-77
2023/05/27 05:07:00;;;;;;;;;;;;;;;;;;5072451;28;19995;-78
2023/05/27 05:09:26;;;;;;;;;;;;;;;;;;5072480;28;19948;-79
2023/05/27 05:11:52;;;;;;;;;;;;;;;;;;5055253;28;19935;-78
2023/05/27 05:14:17;;;;;;;;;;;;;;;;;;5053520;28;19921;-79
2023/05/27 05:16:44;;;;;;;;;;;;;;;;;;5032346;28;20010;-79
2023/05/27 05:19:09;;;;;;;;;;;;;;;;;;5052982;28;20336;-78
2023/05/27 05:21:36;;;;;;;;;;;;;;;;;;5052999;28;20003;-78
2023/05/27 05:24:03;;;;;;;;;;;;;;;;;;5035516;28;20335;-77
2023/05/27 05:26:29;;;;;;;;;;;;;;;;;;5067399;28;19913;-78
2023/05/27 05:28:55;;;;;;;;;;;;;;;;;;5036982;28;19913;-79
2023/05/27 05:31:20;;;;;;;;;;;;;;;;;;5059903;28;20287;-78
2023/05/27 05:33:46;;;;;;;;;;;;;;;;;;5036003;28;20363;-77
2023/05/27 05:36:11;;;;;;;;;;;;;;;;;;5052264;28;19920;-79
2023/05/27 05:38:51;;;;;;;;;;;;;;;;;;5049858;28;19920;-78
2023/05/27 05:41:17;;;;;;;;;;;;;;;;;;5035558;28;19920;-78
2023/05/27 05:43:43;;;;;;;;;;;;;;;;;;5052479;28;19917;-78
2023/05/27 05:46:08;;;;;;;;;;;;;;;;;;5052586;28;19963;-79
2023/05/27 05:48:34;;;;;;;;;;;;;;;;;;5052598;28;20379;-78
2023/05/27 05:51:00;;;;;;;;;;;;;;;;;;5052523;28;19913;-80
2023/05/27 05:53:26;;;;;;;;;;;;;;;;;;5053783;28;20498;-79
2023/05/27 05:55:51;;;;;;;;;;;;;;;;;;5041821;28;20021;-79
2023/05/27 05:58:19;;;;;;;;;;;;;;;;;;5033433;28;20376;-80
2023/05/27 06:00:48;;;;;;;;;;;;;;;;;;5048732;28;20003;-80
2023/05/27 06:03:29;;;;;;;;;;;;;;;;;;5059657;28;19917;-80
2023/05/27 06:05:57;;;;;;;;;;;;;;;;;;5019485;28;20019;-79
2023/05/27 06:08:22;;;;;;;;;;;;;;;;;;5051945;28;20372;-79
2023/05/27 06:10:59;;;;;;;;;;;;;;;;;;5036862;28;19913;-79
2023/05/27 06:13:25;;;;;;;;;;;;;;;;;;5031809;28;20012;-80
2023/05/27 06:15:52;;;;;;;;;;;;;;;;;;5031659;28;19917;-78
2023/05/27 06:18:18;;;;;;;;;;;;;;;;;;5032952;28;19917;-79
2023/05/27 06:20:43;;;;;;;;;;;;;;;;;;5015395;28;19913;-79
2023/05/27 06:23:09;;;;;;;;;;;;;;;;;;5033460;28;20343;-79
2023/05/27 06:25:53;;;;;;;;;;;;;;;;;;5040070;28;19913;-78
2023/05/27 06:28:19;;;;;;;;;;;;;;;;;;5052035;28;19913;-79
2023/05/27 06:30:44;;;;;;;;;;;;;;;;;;5051833;28;19952;-79
2023/05/27 06:33:11;;;;;;;;;;;;;;;;;;5052816;28;19913;-79
2023/05/27 06:35:37;;;;;;;;;;;;;;;;;;5020723;28;19943;-79
2023/05/27 06:38:02;;;;;;;;;;;;;;;;;;5052269;28;19909;-79
2023/05/27 06:40:27;;;;;;;;;;;;;;;;;;5071766;22;20041;-82
2023/05/27 06:42:53;;;;;;;;;;;;;;;;;;5004266;28;19917;-83
2023/05/27 06:45:31;;;;;;;;;;;;;;;;;;5019655;28;19917;-81
2023/05/27 06:48:08;;;;;;;;;;;;;;;;;;5045198;28;19914;-81
2023/05/27 06:50:34;;;;;;;;;;;;;;;;;;5051707;28;20001;-83
2023/05/27 06:52:59;;;;;;;;;;;;;;;;;;5038590;28;19914;-80
2023/05/27 06:55:34;;;;;;;;;;;;;;;;;;5038616;28;19921;-82
2023/05/27 06:58:16;;;;;;;;;;;;;;;;;;5050497;28;19914;-84
2023/05/27 07:00:52;;;;;;;;;;;;;;;;;;5044895;28;19944;-83
2023/05/27 07:03:27;;;;;;;;;;;;;;;;;;5045171;28;19920;-84
2023/05/27 07:05:53;;;;;;;;;;;;;;;;;;5045457;28;19913;-84
2023/05/27 07:08:18;;;;;;;;;;;;;;;;;;5028899;28;19917;-84
2023/05/27 07:10:50;;;;;;;;;;;;;;;;;;5044406;28;19933;-82
2023/05/27 07:13:16;;;;;;;;;;;;;;;;;;5042359;28;19914;-85
2023/05/27 07:15:46;;;;;;;;;;;;;;;;;;5011918;28;19920;-82
2023/05/27 07:18:12;;;;;;;;;;;;;;;;;;5012031;28;19918;-84
2023/05/27 07:20:38;;;;;;;;;;;;;;;;;;4995112;28;19972;-83
2023/05/27 07:23:06;;;;;;;;;;;;;;;;;;4995860;28;19945;-84
2023/05/27 07:25:33;;;;;;;;;;;;;;;;;;4996141;28;19914;-84
2023/05/27 07:27:58;;;;;;;;;;;;;;;;;;5012289;28;19981;-85
2023/05/27 07:30:24;;;;;;;;;;;;;;;;;;5011175;28;19914;-85
2023/05/27 07:32:56;;;;;;;;;;;;;;;;;;5028102;28;20068;-83
2023/05/27 07:35:22;;;;;;;;;;;;;;;;;;5036036;28;19960;-83
2023/05/27 07:37:47;;;;;;;;;;;;;;;;;;5002829;28;19914;-84
2023/05/27 07:40:15;;;;;;;;;;;;;;;;;;5013709;28;19915;-83
2023/05/27 07:42:41;;;;;;;;;;;;;;;;;;5017282;28;20016;-83
2023/05/27 07:45:06;;;;;;;;;;;;;;;;;;5037098;28;19913;-81
2023/05/27 07:47:32;;;;;;;;;;;;;;;;;;5007664;28;20434;-81
2023/05/27 07:50:00;;;;;;;;;;;;;;;;;;5008292;28;20000;-80
2023/05/27 07:52:29;;;;;;;;;;;;;;;;;;5029681;28;19914;-80
2023/05/27 07:54:54;;;;;;;;;;;;;;;;;;5033381;28;19918;-82
2023/05/27 07:57:21;;;;;;;;;;;;;;;;;;5069539;28;19902;-80
2023/05/27 07:59:47;;;;;;;;;;;;;;;;;;5026341;28;19963;-82
2023/05/27 08:02:12;;;;;;;;;;;;;;;;;;5052601;28;19949;-81
2023/05/27 08:04:37;;;;;;;;;;;;;;;;;;5069595;28;19997;-84
2023/05/27 08:07:34;;;;;;;;;;;;;;;;;;5020832;28;19917;-79
2023/05/27 08:10:18;;;;;;;;;;;;;;;;;;5024837;28;19917;-84
2023/05/27 08:12:52;;;;;;;;;;;;;;;;;;5017472;28;19956;-82
2023/05/27 08:15:33;;;;;;;;;;;;;;;;;;5017318;28;20308;-83
2023/05/27 08:18:02;;;;;;;;;;;;;;;;;;5015541;28;19913;-84
2023/05/27 08:20:49;;;;;;;;;;;;;;;;;;5017558;28;20396;-83
2023/05/27 08:23:28;;;;;;;;;;;;;;;;;;5002957;28;20372;-83
2023/05/27 08:26:13;;;;;;;;;;;;;;;;;;5018587;28;19914;-83
2023/05/27 08:28:54;;;;;;;;;;;;;;;;;;5018406;28;19920;-81
2023/05/27 08:31:38;;;;;;;;;;;;;;;;;;5044592;28;19914;-82
2023/05/27 08:34:03;;;;;;;;;;;;;;;;;;5050393;28;19921;-80
2023/05/27 08:36:31;;;;;;;;;;;;;;;;;;5055140;28;19918;-83
2023/05/27 08:38:56;;;;;;;;;;;;;;;;;;5059517;28;19913;-83
2023/05/27 08:41:27;;;;;;;;;;;;;;;;;;5060264;28;19929;-82
2023/05/27 08:43:52;;;;;;;;;;;;;;;;;;5034973;28;19980;-84
2023/05/27 08:46:18;;;;;;;;;;;;;;;;;;5031708;28;19913;-81
2023/05/27 08:48:44;;;;;;;;;;;;;;;;;;5034536;28;19972;-83
2023/05/27 08:51:10;;;;;;;;;;;;;;;;;;5032607;28;19913;-83
2023/05/27 08:53:36;;;;;;;;;;;;;;;;;;5014492;28;19913;-84
2023/05/27 08:56:02;;;;;;;;;;;;;;;;;;5012700;28;19925;-85
2023/05/27 08:58:29;;;;;;;;;;;;;;;;;;5027166;28;19914;-80
2023/05/27 09:00:56;;;;;;;;;;;;;;;;;;5025551;28;19914;-83
2023/05/27 09:03:23;;;;;;;;;;;;;;;;;;5028578;28;19913;-81
2023/05/27 09:05:49;;;;;;;;;;;;;;;;;;5013042;28;20328;-80
2023/05/27 09:08:17;;;;;;;;;;;;;;;;;;5023783;28;20396;-81
2023/05/27 09:10:42;;;;;;;;;;;;;;;;;;5029498;28;19914;-82
2023/05/27 09:13:08;;;;;;;;;;;;;;;;;;5030099;28;19933;-81
2023/05/27 09:15:33;;;;;;;;;;;;;;;;;;5029166;28;20435;-82
2023/05/27 09:17:59;;;;;;;;;;;;;;;;;;5024773;28;19914;-83
2023/05/27 09:20:26;;;;;;;;;;;;;;;;;;5021605;28;19920;-81
2023/05/27 09:22:52;;;;;;;;;;;;;;;;;;5027364;28;19913;-84
2023/05/27 09:25:20;;;;;;;;;;;;;;;;;;5022994;28;19996;-83
2023/05/27 09:27:45;;;;;;;;;;;;;;;;;;5017178;28;19972;-84
2023/05/27 09:30:11;;;;;;;;;;;;;;;;;;5015624;28;19988;-84
2023/05/27 09:32:36;;;;;;;;;;;;;;;;;;5015081;28;20292;-83
2023/05/27 09:35:02;;;;;;;;;;;;;;;;;;5014436;28;19923;-83
2023/05/27 09:37:32;;;;;;;;;;;;;;;;;;4994783;28;20300;-82
2023/05/27 09:39:57;;;;;;;;;;;;;;;;;;5003859;28;20017;-83
2023/05/27 09:42:22;;;;;;;;;;;;;;;;;;5014456;28;19924;-84
2023/05/27 09:44:48;;;;;;;;;;;;;;;;;;5014477;28;19913;-83
2023/05/27 09:47:14;;;;;;;;;;;;;;;;;;5014262;28;19914;-84
2023/05/27 09:49:39;;;;;;;;;;;;;;;;;;5013322;28;19967;-83
2023/05/27 09:52:04;;;;;;;;;;;;;;;;;;4996944;28;19914;-82
2023/05/27 09:54:30;;;;;;;;;;;;;;;;;;5035290;28;19918;-82
2023/05/27 09:56:55;;;;;;;;;;;;;;;;;;5010272;28;19913;-82
2023/05/27 09:59:21;;;;;;;;;;;;;;;;;;5014266;28;19943;-82
2023/05/27 10:01:49;;;;;;;;;;;;;;;;;;5013676;28;19964;-83
2023/05/27 10:04:16;;;;;;;;;;;;;;;;;;5014007;28;19920;-82
2023/05/27 10:06:41;;;;;;;;;;;;;;;;;;5013936;28;19914;-83
2023/05/27 10:09:06;;;;;;;;;;;;;;;;;;5014487;28;19921;-83
2023/05/27 10:11:32;;;;;;;;;;;;;;;;;;4979814;28;19921;-82
2023/05/27 10:13:57;;;;;;;;;;;;;;;;;;5012583;28;19914;-83
2023/05/27 10:16:26;;;;;;;;;;;;;;;;;;5013814;28;20013;-83
2023/05/27 10:18:52;;;;;;;;;;;;;;;;;;5014728;28;19939;-83
2023/05/27 10:21:17;;;;;;;;;;;;;;;;;;5013902;28;19964;-82
2023/05/27 10:23:45;;;;;;;;;;;;;;;;;;5012780;28;19913;-82
2023/05/27 10:26:11;;;;;;;;;;;;;;;;;;5013170;28;20519;-82
2023/05/27 10:28:37;;;;;;;;;;;;;;;;;;5013429;28;19920;-82
2023/05/27 10:31:02;;;;;;;;;;;;;;;;;;5013114;28;19917;-81
2023/05/27 10:33:28;;;;;;;;;;;;;;;;;;4997528;28;20397;-82
2023/05/27 10:35:53;;;;;;;;;;;;;;;;;;5032578;28;20278;-84
2023/05/27 10:38:18;;;;;;;;;;;;;;;;;;5037658;28;19920;-82
2023/05/27 10:40:53;;;;;;;;;;;;;;;;;;5025979;28;20459;-82
2023/05/27 10:43:18;;;;;;;;;;;;;;;;;;5048918;28;20008;-81
2023/05/27 10:45:44;;;;;;;;;;;;;;;;;;5021005;28;20405;-80
2023/05/27 10:48:10;;;;;;;;;;;;;;;;;;5028759;28;19920;-82
2023/05/27 10:50:35;;;;;;;;;;;;;;;;;;5032075;28;19913;-83
2023/05/27 10:53:01;;;;;;;;;;;;;;;;;;5034038;28;19964;-83
2023/05/27 10:55:29;;;;;;;;;;;;;;;;;;5034707;28;19924;-82
2023/05/27 10:57:55;;;;;;;;;;;;;;;;;;5034971;28;19913;-83
2023/05/27 11:00:20;;;;;;;;;;;;;;;;;;5013117;28;19957;-83
2023/05/27 11:02:46;;;;;;;;;;;;;;;;;;5026630;28;19945;-84
2023/05/27 11:59:15;;;;;;;7.25;2.55;;;;;;;;;;5044257;28;20067;-83
2023/05/27 12:01:41;;;;;;;9.65;3.40;;;;;;;;;;4887613;28;3688955;-83
2023/05/27 12:04:07;;;;;;;9.45;2.75;;;;;;;;;;5017347;28;20025;-82
2023/05/27 12:06:43;;;;;;;10.10;2.72;;;;;;;;;;5001700;28;20054;-83
2023/05/27 12:09:41;;;;;;;11.18;3.15;;;;;;;;;;4979567;28;20030;-83
2023/05/27 12:12:34;;;;;;;6.72;2.70;;;;;;;;;;4981018;28;20045;-83
2023/05/27 12:14:58;;;;;;;9.13;3.08;;;;;;;;;;5009981;28;20038;-82
2023/05/27 12:17:33;;;;;;;8.63;2.60;;;;;;;;;;5008680;28;20080;-83
2023/05/27 12:20:29;;;;;;;10.65;3.78;;;;;;;;;;4983686;28;20062;-84
2023/05/27 12:22:56;;;;;;;6.65;2.92;;;;;;;;;;4958890;28;20095;-84
2023/05/27 12:26:10;;;;;;;;;;;;;;;;;;;;;
2023/05/27 12:28:37;;;;;;;8.85;2.97;;;;;;;;;;5018480;28;20034;-81
2023/05/27 12:31:02;;;;;;;10.52;3.08;;;;;;;;;;5000730;28;20065;-83
2023/05/27 12:33:28;;;;;;;11.38;4.05;;;;;;;;;;5003193;28;20030;-82
2023/05/27 12:35:54;;;;;;;10.20;3.60;;;;;;;;;;5006564;28;20033;-83
2023/05/27 12:38:22;;;;;;;9.63;3.22;;;;;;;;;;5023141;28;20129;-82
2023/05/27 12:40:48;;;;;;;5.18;2.33;;;;;;;;;;5005339;28;20034;-82
2023/05/27 12:43:14;;;;;;;7.28;2.65;;;;;;;;;;4983737;28;20022;-83
2023/05/27 12:45:41;;;;;;;7.90;2.95;;;;;;;;;;5013477;28;20037;-82
2023/05/27 12:48:07;;;;;;;6.95;2.45;;;;;;;;;;5024038;28;20049;-83
2023/05/27 12:50:33;;;;;;;9.57;2.65;;;;;;;;;;4985063;28;20029;-82
2023/05/27 12:52:59;;;;;;;9.00;3.10;;;;;;;;;;4993720;28;20041;-82
2023/05/27 12:55:25;;;;;;;8.18;3.22;;;;;;;;;;4987295;28;20062;-83
2023/05/27 12:57:51;;;;;;;11.05;2.83;;;;;;;;;;4984819;28;20086;-83
2023/05/27 13:00:17;;;;;;;8.27;2.35;;;;;;;;;;5010834;28;20031;-82
2023/05/27 13:02:44;;;;;;;8.40;2.58;;;;;;;;;;4991513;28;20046;-82
2023/05/27 13:05:09;;;;;;;7.60;2.80;;;;;;;;;;4989194;28;20034;-83
2023/05/27 13:07:35;;;;;;;7.25;2.50;;;;;;;;;;4982884;28;20031;-82
2023/05/27 13:10:02;;;;;;;10.60;2.85;;;;;;;;;;4962533;28;20045;-83
2023/05/27 13:12:29;;;;;;;7.47;2.47;;;;;;;;;;4974977;28;20454;-82
2023/05/27 13:14:55;;;;;;;7.07;3.17;;;;;;;;;;4977010;28;20034;-82
2023/05/27 13:17:21;;;;;;;8.98;2.72;;;;;;;;;;4994245;28;20033;-82
2023/05/27 13:19:47;;;;;;;7.63;2.80;;;;;;;;;;4961619;28;20038;-81
2023/05/27 13:22:14;;;;;;;9.32;3.00;;;;;;;;;;4977718;28;20109;-82
2023/05/27 13:24:39;;;;;;;8.00;3.00;;;;;;;;;;4994740;28;20161;-83
2023/05/27 13:27:06;;;;;;;9.50;3.35;;;;;;;;;;4978214;28;20455;-83
2023/05/27 13:29:32;;;;;;;8.90;2.38;;;;;;;;;;4974490;28;20035;-82
2023/05/27 13:31:58;;;;;;;9.38;2.92;;;;;;;;;;4975467;28;20404;-81
2023/05/27 13:34:24;;;;;;;7.68;2.30;;;;;;;;;;4976861;28;20042;-83
2023/05/27 13:36:49;;;;;;;6.93;3.17;;;;;;;;;;4977357;28;20041;-81
2023/05/27 13:39:15;;;;;;;8.30;2.70;;;;;;;;;;4981026;28;20030;-83
2023/05/27 13:41:41;;;;;;;6.20;2.50;;;;;;;;;;4982002;28;20026;-81
2023/05/27 13:44:07;;;;;;;7.78;2.50;;;;;;;;;;4999890;28;20027;-83
2023/05/27 13:46:32;;;;;;;7.43;2.70;;;;;;;;;;4999592;28;20022;-83
2023/05/27 13:49:01;;;;;;;7.93;2.78;;;;;;;;;;4952906;28;20038;-82
2023/05/27 13:51:29;;;;;;;7.85;2.88;;;;;;;;;;4999551;28;20145;-82
2023/05/27 13:53:54;;;;;;;;;;;;;;;;;;4985492;28;20096;-81
2023/05/27 13:56:22;;;;;;;8.85;2.55;;;;;;;;;;4982454;28;20021;-81
2023/05/27 13:58:48;;;;;;;6.13;2.25;;;;;;;;;;4996977;28;20030;-83
2023/05/27 14:01:17;;;;;;;7.47;3.08;;;;;;;;;;4978122;28;20030;-82
2023/05/27 14:03:50;;;;;;;7.13;2.63;;;;;;;;;;4978676;28;20026;-81
2023/05/27 14:06:16;;;;;;;8.80;2.85;;;;;;;;;;4976482;28;20031;-82
2023/05/27 14:08:42;;;;;;;7.00;2.53;;;;;;;;;;4977723;28;20035;-81
2023/05/27 14:11:07;;;;;;;6.28;2.45;;;;;;;;;;4969477;28;20053;-82
2023/05/27 14:13:33;;;;;;;7.82;2.45;;;;;;;;;;4994172;28;20030;-83
2023/05/27 14:15:58;;;;;;;5.00;2.20;;;;;;;;;;4978211;28;20037;-82
2023/05/27 14:18:24;;;;;;;9.05;2.47;;;;;;;;;;4965747;28;20054;-82
2023/05/27 14:20:52;;;;;;;6.55;3.05;;;;;;;;;;4990826;28;20042;-83
2023/05/27 14:23:19;;;;;;;6.82;2.42;;;;;;;;;;5004947;28;20061;-82
2023/05/27 14:25:44;;;;;;;4.60;2.40;;;;;;;;;;5001671;28;20482;-83
2023/05/27 14:28:10;;;;;;;5.05;2.38;;;;;;;;;;4999266;28;20023;-82
2023/05/27 14:30:36;;;;;;;7.38;2.83;;;;;;;;;;4957846;28;20116;-81
2023/05/27 14:33:03;;;;;;;6.30;2.63;;;;;;;;;;4981546;28;20031;-82
2023/05/27 14:35:28;;;;;;;9.27;2.65;;;;;;;;;;4977301;28;20114;-83
2023/05/27 14:38:04;;;;;;;7.25;2.88;;;;;;;;;;4994712;28;20106;-82
2023/05/27 14:40:32;;;;;;;11.90;2.97;;;;;;;;;;4994578;28;20438;-83
2023/05/27 14:42:58;;;;;;;6.22;2.38;;;;;;;;;;4956679;28;20094;-83
2023/05/27 14:45:26;;;;;;;6.82;2.33;;;;;;;;;;4975112;28;20027;-82
2023/05/27 14:47:53;;;;;;;5.82;2.38;;;;;;;;;;4983158;28;20096;-83
2023/05/27 14:50:22;;;;;;;9.23;3.00;;;;;;;;;;4995980;28;20061;-80
2023/05/27 14:52:51;;;;;;;6.63;2.40;;;;;;;;;;4998390;28;20027;-82
2023/05/27 14:55:17;;;;;;;8.65;2.60;;;;;;;;;;4996509;28;20537;-82
2023/05/27 14:57:49;;;;;;;6.82;2.85;;;;;;;;;;4996106;28;20121;-81
2023/05/27 15:00:17;;;;;;;9.93;3.10;;;;;;;;;;4977965;28;20503;-82
2023/05/27 15:02:43;;;;;;;7.15;2.80;;;;;;;;;;4977234;28;20026;-83
2023/05/27 15:05:09;;;;;;;8.10;2.50;;;;;;;;;;4987094;28;20039;-82
2023/05/27 15:07:35;;;;;;;7.38;2.80;;;;;;;;;;4985268;28;20026;-81
2023/05/27 15:10:01;;;;;;;7.05;2.63;;;;;;;;;;4952343;28;20570;-82
2023/05/27 15:12:40;;;;;;;8.52;2.58;;;;;;;;;;4987463;28;20034;-82
2023/05/27 15:15:11;;;;;;;8.07;2.67;;;;;;;;;;4974871;28;20045;-82
2023/05/27 15:17:37;;;;;;;7.90;2.40;;;;;;;;;;4988895;28;20058;-82
2023/05/27 15:20:03;;;;;;;7.53;2.22;;;;;;;;;;4963320;28;20058;-82
2023/05/27 15:26:13;;;;;;;5.30;2.17;;;;;;;;;;4981130;28;20091;-83
2023/05/27 15:28:42;;;;;;;5.90;2.47;;;;;;;;;;4975209;28;20057;-82
2023/05/27 15:31:25;;;;;;;8.50;3.40;;;;;;;;;;4974173;28;20019;-81
2023/05/27 15:34:05;;;;;;;7.15;2.67;;;;;;;;;;4978801;28;20029;-82
2023/05/27 15:36:34;;;;;;;7.28;2.60;;;;;;;;;;4958805;28;20042;-82
2023/05/27 15:39:02;;;;;;;6.28;2.28;;;;;;;;;;4959614;28;20027;-83
2023/05/27 15:41:38;;;;;;;7.70;3.40;;;;;;;;;;4957142;28;20023;-82
2023/05/27 15:44:20;;;;;;;;;;;;;;;;;;;;;
2023/05/27 15:46:46;;;;;;;7.90;2.60;;;;;;;;;;5152883;23;20053;-84
2023/05/27 15:49:15;;;;;;;5.55;2.70;;;;;;;;;;5011498;28;20053;-83
2023/05/27 15:51:47;;;;;;;7.35;2.65;;;;;;;;;;5012235;28;20026;-84
2023/05/27 15:54:28;;;;;;;6.63;2.60;;;;;;;;;;4995097;28;20038;-84
2023/05/27 15:56:54;;;;;;;8.55;2.72;;;;;;;;;;4961148;28;20126;-84
2023/05/27 15:59:26;;;;;;;5.75;2.30;;;;;;;;;;4965846;28;20042;-83
2023/05/27 16:02:00;;;;;;;5.35;2.13;;;;;;;;;;4961840;28;20188;-84
2023/05/27 16:04:31;;;;;;;13.40;3.00;;;;;;;;;;4976801;28;20100;-84
2023/05/27 16:07:09;;;;;;;;;;;;;;;;;;;;;
2023/05/27 16:10:00;;;;;;;5.35;2.17;;;;;;;;;;4994118;28;20222;-83
2023/05/27 16:13:37;;;;;;;9.98;2.80;;;;;;;;;;4971318;28;20034;-84
2023/05/27 16:16:21;;;;;;;10.15;3.47;;;;;;;;;;4976083;28;20039;-83
2023/05/27 16:18:49;;;;;;;5.97;1.90;;;;;;;;;;4986830;28;20562;-84
2023/05/27 16:21:17;;;;;;;6.07;2.25;;;;;;;;;;4996621;28;20030;-84
2023/05/27 16:23:46;;;;;;;;;;;;;;;;;;4978014;28;20399;-84
2023/05/27 16:26:12;;;;;;;6.25;2.80;;;;;;;;;;4972830;28;19918;-83
2023/05/27 16:32:45;;;;;;;7.32;3.70;;;;;;;;;;4960643;28;20071;-85
2023/05/27 16:35:21;;;;;;;4.43;2.13;;;;;;;;;;4975168;28;20054;-84
2023/05/27 16:38:20;;;;;;;5.35;2.05;;;;;;;;;;4974628;28;20031;-83
2023/05/27 16:41:05;;;;;;;9.63;3.30;;;;;;;;;;4975808;28;20031;-83
2023/05/27 16:43:37;;;;;;;6.70;3.22;;;;;;;;;;4975649;28;20558;-84
2023/05/27 16:46:03;;;;;;;5.28;2.30;;;;;;;;;;4958288;28;20051;-83
2023/05/27 16:48:55;;;;;;;;;;;;;;;;;;;;;
2023/05/27 16:51:58;;;;;;;8.95;2.65;;;;;;;;;;4993857;28;20109;-84
2023/05/27 16:54:24;;;;;;;6.53;2.95;;;;;;;;;;4994373;28;20077;-83
2023/05/27 16:56:50;;;;;;;7.95;2.53;;;;;;;;;;5010998;28;20034;-83
2023/05/27 16:59:15;;;;;;;7.20;2.53;;;;;;;;;;4979338;28;20034;-84
2023/05/27 17:01:41;;;;;;;5.75;2.13;;;;;;;;;;4978158;28;20080;-83
2023/05/27 17:04:06;;;;;;;6.28;2.50;;;;;;;;;;4994664;28;20080;-83
2023/05/27 17:06:33;;;;;;;5.68;2.85;;;;;;;;;;4997707;28;20066;-83
2023/05/27 17:08:59;;;;;;;6.32;2.78;;;;;;;;;;5006709;28;20030;-83
2023/05/27 17:11:26;;;;;;;8.70;3.00;;;;;;;;;;5010738;28;20026;-83
2023/05/27 17:13:52;;;;;;;7.68;2.65;;;;;;;;;;4996101;28;20030;-83
2023/05/27 17:16:18;;;;;;;6.95;3.20;;;;;;;;;;5016086;28;20040;-83